Latest Weather Observations for Laverton

IDW60801

Issued at 4:05 pm WST Saturday 1 November 2014 (issued every 30 minutes, with the page automatically refreshed every 10 minutes)

About weather observations | Map of weather stations | Latest weather observations for WA | Other Formats
Station Details ID: 012305 Name: LAVERTON AERO Lat: -28.61 Lon: 122.42 Height: 464.3 m
Data from the previous 72 hours. | See also: Recent months at Laverton
Date/Time
WST
Temp
°C
App
Temp
°C
Dew
Point
Rel
Hum
%
Delta-T
°C
Wind Press
QNH
hPa
Press
MSL
hPa
Rain
since 9 am
mm
Dir
 
Spd
km/h
Gust
km/h
Spd
kts
Gust
kts
01/04:00pm 26.5 20.4 -2.2 15 13.1 ENE 20 28 11 15 1017.3 1014.8 0.0
01/03:30pm 25.8 20.9 -0.3 18 12.3 ENE 15 24 8 13 1017.2 1014.7 0.0
01/03:00pm 25.6 19.6 1.0 20 11.8 ESE 22 32 12 17 1017.4 1014.9 0.0
01/02:30pm 25.4 20.3 2.8 23 11.2 E 19 28 10 15 1017.6 1015.1 0.0
01/02:00pm 25.0 19.2 2.4 23 11.1 SE 22 30 12 16 1017.9 1015.5 0.0
01/01:30pm 24.7 19.7 3.4 25 10.7 ESE 19 33 10 18 1018.3 1015.9 0.0
01/01:00pm 23.7 18.8 4.1 28 9.8 ESE 19 28 10 15 1018.8 1016.3 0.0
01/12:30pm 22.9 17.8 3.9 29 9.5 ESE 20 30 11 16 1019.4 1016.9 0.0
01/12:00pm 22.8 17.8 4.8 31 9.1 ESE 20 30 11 16 1019.9 1017.5 0.0
01/11:30am 22.3 16.6 4.8 32 8.8 ESE 24 30 13 16 1020.4 1018.0 0.0
01/11:00am 21.4 17.0 4.9 34 8.3 E 17 33 9 18 1020.7 1018.3 0.0
01/10:30am 21.4 16.5 5.3 35 8.2 ENE 20 28 11 15 1021.2 1018.7 0.0
01/10:00am 20.0 14.8 5.3 38 7.4 ESE 22 30 12 16 1021.6 1019.2 0.0
01/09:30am 19.1 14.3 5.6 41 6.8 E 20 44 11 24 1021.9 1019.5 0.0
01/09:00am 17.9 11.8 4.8 42 6.4 E 26 35 14 19 1022.0 1019.6 0.0
01/08:30am 16.6 10.9 4.9 46 5.7 E 24 33 13 18 1022.1 1019.7 0.0
01/08:00am 16.5 10.5 5.2 47 5.5 E 26 35 14 19 1022.1 1019.7 0.0
01/07:30am 15.5 8.6 4.8 49 5.1 E 30 37 16 20 1022.0 1020.1 0.0
01/07:00am 14.5 7.6 4.8 52 4.6 E 30 41 16 22 1021.9 1020.0 0.0
01/06:30am 13.6 6.1 4.7 55 4.2 E 33 46 18 25 1021.4 1019.5 0.0
01/06:00am 13.5 6.3 5.7 59 3.8 E 33 48 18 26 1021.1 1019.2 0.0
01/05:30am 13.4 7.5 5.8 60 3.7 E 26 35 14 19 1020.5 1018.6 0.0
01/05:00am 13.3 7.4 5.9 61 3.6 ESE 26 37 14 20 1020.0 1018.1 0.0
01/04:30am 13.6 7.4 6.0 60 3.7 ESE 28 39 15 21 1019.5 1017.6 0.0
01/04:00am 14.2 7.6 6.1 58 4.0 ESE 30 44 16 24 1019.1 1017.2 0.0
01/03:30am 14.7 7.7 7.0 60 3.9 ESE 33 44 18 24 1018.8 1016.8 0.0
01/03:00am 15.5 8.3 7.8 60 3.9 ESE 35 46 19 25 1018.1 1016.2 0.0
01/02:44am 16.0 8.9 8.2 60 4.0 ESE 35 56 19 30 1017.9 1016.0 0.0
01/02:30am 16.4 10.0 8.6 60 4.1 ESE 32 39 17 21 1017.8 1015.9 0.0
01/02:00am 17.1 10.2 8.8 58 4.4 ESE 35 44 19 24 1017.5 1015.6 0.0
01/01:30am 18.1 12.4 8.4 53 5.1 ESE 28 37 15 20 1017.2 1015.3 0.0
01/01:00am 18.5 12.5 7.0 47 5.9 SE 28 37 15 20 1017.1 1015.2 0.0
01/12:30am 18.9 12.8 6.4 44 6.4 SE 28 35 15 19 1017.1 1015.2 0.0
01/12:00am 19.3 13.2 6.8 44 6.4 SE 28 33 15 18 1017.2 1015.3 0.0
 
Date/Time
WST
Temp
°C
App
Temp
°C
Dew
Point
Rel
Hum
%
Delta-T
°C
Wind Press
QNH
hPa
Press
MSL
hPa
Rain
since 9 am
mm
Dir
 
Spd
km/h
Gust
km/h
Spd
kts
Gust
kts
31/11:30pm 19.9 13.9 7.0 43 6.7 SE 28 37 15 20 1017.2 1015.3 0.0
31/11:00pm 20.3 15.0 6.6 41 7.1 SSE 24 33 13 18 1017.2 1015.3 0.0
31/10:30pm 21.0 15.2 6.2 38 7.6 SSE 26 35 14 19 1017.3 1015.4 0.0
31/10:00pm 21.5 16.8 6.2 37 7.9 SSE 20 28 11 15 1017.3 1015.4 0.0
31/09:30pm 21.7 17.6 6.4 37 7.9 SSE 17 20 9 11 1017.2 1015.3 0.0
31/09:00pm 22.3 18.1 5.7 34 8.5 SSE 17 20 9 11 1017.0 1015.1 0.0
31/08:30pm 22.6 19.1 5.5 33 8.8 SSE 13 19 7 10 1016.6 1014.6 0.0
31/08:00pm 23.2 19.0 5.6 32 9.1 SSE 17 22 9 12 1016.1 1014.2 0.0
31/07:30pm 23.7 18.9 5.6 31 9.4 S 20 33 11 18 1015.8 1013.9 0.0
31/07:00pm 24.3 19.6 5.1 29 9.9 S 19 26 10 14 1015.3 1013.4 0.0
31/06:30pm 24.9 20.3 5.7 29 10.0 S 19 24 10 13 1014.8 1012.8 0.0
31/06:00pm 25.4 20.5 5.1 27 10.5 S 20 28 11 15 1014.3 1012.3 0.0
31/05:30pm 26.0 20.8 5.6 27 10.7 S 22 30 12 16 1013.8 1011.9 0.0
31/05:00pm 26.3 20.5 6.3 28 10.6 S 26 37 14 20 1013.4 1011.5 0.0
31/04:30pm 26.6 21.3 6.6 28 10.7 S 24 33 13 18 1013.2 1011.3 0.0
31/04:00pm 27.3 22.2 7.7 29 10.7 S 24 37 13 20 1013.0 1011.0 0.0
31/03:30pm 26.6 21.9 6.1 27 10.9 SW 20 24 11 13 1012.9 1010.9 0.0
31/03:00pm 26.3 21.7 6.3 28 10.6 S 20 32 11 17 1012.8 1010.8 0.0
31/02:30pm 27.0 22.7 6.9 28 10.8 S 19 33 10 18 1012.7 1010.7 0.0
31/02:00pm 27.2 23.0 8.1 30 10.5 S 20 33 11 18 1012.7 1010.7 0.0
31/01:30pm 26.0 21.0 6.6 29 10.4 SSW 22 30 12 16 1012.8 1010.8 0.0
31/01:00pm 26.5 21.5 8.0 31 10.2 SSW 24 33 13 18 1013.1 1011.1 0.0
31/12:30pm 27.4 22.8 8.3 30 10.6 SSW 22 37 12 20 1013.0 1011.0 0.0
31/12:00pm 26.7 21.6 7.7 30 10.4 SW 24 37 13 20 1013.1 1011.1 0.0
31/11:30am 25.6 20.3 8.6 34 9.4 SSW 26 39 14 21 1013.3 1011.4 0.0
31/11:00am 26.0 21.0 8.0 32 9.8 SSW 24 33 13 18 1013.5 1011.6 0.0
31/10:30am 24.3 19.7 8.3 36 8.7 SW 22 32 12 17 1013.4 1011.5 0.0
31/10:00am 23.9 19.4 10.2 42 7.7 SSW 24 33 13 18 1013.6 1011.7 0.0
31/09:30am 23.1 19.0 10.2 44 7.2 SW 22 35 12 19 1013.6 1011.7 0.0
31/09:00am 22.9 18.0 10.0 44 7.2 SSW 26 33 14 18 1013.6 1011.7 0.0
31/08:30am 23.5 19.0 9.9 42 7.6 SSW 24 35 13 19 1013.4 1011.5 0.0
31/08:00am 22.4 17.4 9.6 44 7.1 SSW 26 35 14 19 1013.2 1011.3 0.0
31/07:30am 22.3 17.7 9.5 44 7.0 SSW 24 32 13 17 1013.0 1011.0 0.0
31/07:00am 21.4 15.1 9.0 45 6.7 SSW 32 41 17 22 1012.6 1010.6 0.0
31/06:30am 21.5 17.6 9.4 46 6.6 SSW 20 30 11 16 1012.3 1010.3 0.0
31/06:00am 21.1 18.2 9.7 48 6.3 SW 15 19 8 10 1011.8 1009.9 0.0
31/05:30am 20.3 18.9 9.5 50 5.9 WSW 7 15 4 8 1011.4 1009.5 0.0
31/05:00am 20.2 18.3 9.2 49 6.0 SW 9 13 5 7 1010.9 1008.9 0.0
31/04:30am 21.1 19.2 9.0 46 6.6 SSW 9 11 5 6 1010.5 1008.5 0.0
31/04:00am 21.4 19.1 9.0 45 6.7 SW 11 13 6 7 1010.0 1008.0 0.0
31/03:30am 21.8 19.1 9.0 44 7.0 SSW 13 17 7 9 1009.8 1007.8 0.0
31/03:00am 21.9 19.9 8.8 43 7.1 SW 9 13 5 7 1009.4 1007.5 0.0
31/02:30am 22.5 20.5 8.6 41 7.5 SSW 9 13 5 7 1009.4 1007.5 0.0
31/02:00am 23.4 20.2 8.3 38 8.2 SSW 15 19 8 10 1009.3 1007.3 0.0
31/01:30am 24.1 20.4 8.1 36 8.7 SSW 17 22 9 12 1009.3 1007.3 0.0
31/01:00am 23.5 21.4 8.4 38 8.2 SW 9 17 5 9 1009.3 1007.3 0.0
31/12:30am 24.3 21.0 7.9 35 8.9 WSW 15 19 8 10 1009.4 1007.5 0.0
31/12:00am 24.6 21.3 8.1 35 9.0 SW 15 19 8 10 1009.4 1007.5 0.0
 
Date/Time
WST
Temp
°C
App
Temp
°C
Dew
Point
Rel
Hum
%
Delta-T
°C
Wind Press
QNH
hPa
Press
MSL
hPa
Rain
since 9 am
mm
Dir
 
Spd
km/h
Gust
km/h
Spd
kts
Gust
kts
30/11:30pm 24.0 21.8 9.2 39 8.2 WSW 11 15 6 8 1009.7 1007.7 0.0
30/11:00pm 24.0 21.5 9.6 40 8.0 WSW 13 15 7 8 1009.9 1007.9 0.0
30/10:30pm 24.7 22.0 9.0 37 8.7 W 13 17 7 9 1009.9 1007.9 0.0
30/10:00pm 25.6 22.4 8.6 34 9.4 WSW 15 20 8 11 1009.9 1007.9 0.0
30/09:30pm 25.7 23.1 9.5 36 9.1 W 13 15 7 8 1009.8 1007.8 0.0
30/09:00pm 26.0 23.8 9.4 35 9.3 W 11 15 6 8 1009.8 1007.8 0.0
30/08:30pm 26.2 24.5 10.0 36 9.2 W 9 11 5 6 1009.7 1007.7 0.0
30/08:00pm 27.9 25.1 8.7 30 10.8 WSW 13 15 7 8 1009.5 1007.6 0.0
30/07:30pm 28.5 26.3 9.2 30 10.9 W 11 13 6 7 1009.3 1007.3 0.0
30/07:00pm 29.7 27.3 8.7 27 11.9 W 11 15 6 8 1009.0 1007.0 0.0
30/06:30pm 31.2 28.5 8.8 25 12.7 W 13 17 7 9 1008.8 1006.8 0.0
30/06:00pm 32.5 30.1 9.9 25 13.2 W 13 17 7 9 1008.5 1006.5 0.0
30/05:30pm 33.2 30.9 10.5 25 13.4 WNW 13 20 7 11 1008.2 1006.2 0.0
30/05:00pm 33.5 30.5 10.8 25 13.5 W 17 28 9 15 1008.1 1006.1 0.0
30/04:30pm 32.8 31.6 12.9 29 12.1 S 11 17 6 9 1008.3 1006.3 0.0
30/04:00pm 33.2 31.0 13.3 30 12.3 WSW 17 20 9 11 1008.4 1006.4 0.0
30/03:30pm 33.2 30.1 13.3 30 12.2 SSW 22 30 12 16 1008.6 1006.6 0.0
30/03:00pm 34.6 29.1 7.6 19 15.3 W 26 43 14 23 1008.7 1006.7 0.0
30/02:30pm 33.8 29.0 10.4 24 13.8 NW 26 33 14 18 1009.0 1007.0 0.0
30/02:00pm 33.9 31.0 12.8 28 12.9 NW 20 33 11 18 1009.4 1007.5 0.0
30/01:30pm 33.1 29.4 12.7 29 12.4 WNW 24 39 13 21 1010.0 1008.0 0.0
30/01:00pm 32.2 29.9 12.9 31 11.8 W 17 26 9 14 1010.4 1008.4 0.0
30/12:30pm 31.3 29.0 13.1 33 11.1 WNW 17 32 9 17 1011.0 1009.0 0.0
30/12:00pm 30.7 29.7 13.5 35 10.5 W 11 28 6 15 1011.5 1009.6 0.0
30/11:30am 30.0 29.7 14.5 38 9.6 NW 9 17 5 9 1012.0 1010.0 0.0
30/11:00am 29.0 27.8 14.0 39 9.2 W 13 20 7 11 1012.5 1010.5 0.0
30/10:30am 28.0 27.0 14.6 44 8.2 SW 13 22 7 12 1013.0 1011.0 0.0
30/10:00am 27.6 26.0 14.9 45 7.8 SW 17 22 9 12 1013.4 1011.5 0.0
30/09:30am 27.0 25.1 15.1 48 7.3 SW 19 26 10 14 1013.8 1011.9 0.0
30/09:00am 27.1 24.6 14.1 44 7.9 SW 20 28 11 15 1013.9 1012.0 4.6
30/08:30am 27.2 25.3 14.2 44 7.9 NW 17 22 9 12 1013.5 1011.6 4.6
30/08:00am 25.7 23.1 13.2 46 7.5 N 19 28 10 15 1013.5 1011.6 4.6
30/07:30am 25.2 23.3 14.3 50 6.6 N 17 22 9 12 1013.5 1011.6 4.6
30/07:00am 23.5 21.1 13.9 55 5.7 N 19 26 10 14 1013.5 1011.6 4.6
30/06:30am 21.7 19.2 13.6 60 4.8 N 19 28 10 15 1013.3 1011.4 4.6
30/06:00am 21.3 18.5 13.2 60 4.7 N 20 28 11 15 1012.8 1010.8 4.6
30/05:30am 20.8 18.1 13.0 61 4.5 NNE 19 24 10 13 1012.7 1010.7 4.6
30/05:00am 20.7 18.1 13.2 62 4.4 NNE 19 22 10 12 1012.5 1010.5 4.6
30/04:30am 20.0 18.6 13.5 66 3.8 NNE 13 17 7 9 1012.5 1010.5 4.6
30/04:00am 19.0 16.6 14.3 74 2.8 NE 20 26 11 14 1011.7 1009.8 4.6
30/03:30am 17.6 19.1 14.7 83 1.7 CALM 0 0 0 0 1013.3 1011.4 4.6
30/03:00am 19.0 18.6 14.1 73 2.9 NW 9 13 5 7 1013.5 1011.6 4.6
30/02:30am 19.9 20.3 13.8 68 3.6 NW 4 9 2 5 1013.7 1011.8 4.6
30/02:00am 20.9 20.3 13.4 62 4.4 NNE 9 13 5 7 1013.2 1011.3 4.6
30/01:30am 20.6 18.9 13.6 64 4.1 NNE 15 22 8 12 1013.4 1011.5 4.6
30/01:00am 20.9 18.4 13.6 63 4.3 NNE 19 26 10 14 1013.3 1011.4 4.6
30/12:30am 20.7 18.7 13.9 65 4.0 NNE 17 24 9 13 1013.5 1011.6 4.6
30/12:00am 20.5 18.6 14.2 67 3.7 NE 17 22 9 12 1013.8 1011.9 4.6
 
Date/Time
WST
Temp
°C
App
Temp
°C
Dew
Point
Rel
Hum
%
Delta-T
°C
Wind Press
QNH
hPa
Press
MSL
hPa
Rain
since 9 am
mm
Dir
 
Spd
km/h
Gust
km/h
Spd
kts
Gust
kts
29/11:30pm 20.7 18.3 14.4 67 3.8 NE 20 28 11 15 1014.3 1012.3 4.6
29/11:00pm 21.1 18.3 14.3 65 4.0 NE 22 32 12 17 1014.6 1012.6 4.6
29/10:30pm 21.2 18.1 14.4 65 4.1 NNE 24 35 13 19 1015.1 1013.2 4.6
29/10:00pm 21.6 18.1 14.5 64 4.2 NNE 26 33 14 18 1015.3 1013.4 4.6
29/09:30pm 21.6 17.8 14.7 65 4.1 NNE 28 33 15 18 1015.5 1013.6 4.6
29/09:00pm 21.0 16.6 15.1 69 3.6 NNE 32 41 17 22 1016.5 1014.5 4.6
29/08:30pm 20.6 18.7 16.6 78 2.5 NNE 22 33 12 18 1017.5 1015.6 4.6
29/08:00pm 21.4 20.4 15.7 70 3.5 N 15 20 8 11 1016.2 1014.3 4.2
29/07:30pm 20.8 18.4 16.4 76 2.7 NNE 24 28 13 15 1014.6 1012.6 4.2
29/07:00pm 19.3 20.9 18.3 94 0.6 NNE 7 9 4 5 1016.1 1014.2 4.2
29/06:30pm 19.6 19.9 17.0 85 1.6 WNW 11 15 6 8 1017.3 1015.4 3.6
29/06:00pm 22.0 18.0 15.1 65 4.2 N 30 44 16 24 1017.4 1015.5 2.2
29/05:55pm 22.7 19.2 14.5 60 4.9 N 26 44 14 24 1017.0 1015.1 2.0
29/05:30pm 24.8 21.9 12.4 46 7.3 NNE 19 28 10 15 1014.9 1012.9 1.6
29/05:00pm 25.7 20.4 11.1 40 8.4 NNE 30 50 16 27 1012.9 1010.9 1.6
29/04:58pm 25.8 20.1 11.2 40 8.4 NNE 32 50 17 27 1013.0 1011.0 1.6
29/04:30pm 25.4 20.3 11.9 43 7.9 ENE 30 41 16 22 1012.1 1010.1 1.6
29/04:25pm 25.4 19.9 11.9 43 7.9 ENE 32 43 17 23 1012.0 1010.0 1.6

Other Formats:

Comma delimited format used in spreadsheet applications
http://www.bom.gov.au/fwo/IDW60801/IDW60801.94449.axf

JavaScript Object Notation format (JSON) in row-major order
http://www.bom.gov.au/fwo/IDW60801/IDW60801.94449.json